sensor_id;sensor_type;location;lat;lon;timestamp;temperature;humidity
22212;DHT22;11275;52.488;13.462;2023-07-02T00:00:59;20.50;99.90
22212;DHT22;11275;52.488;13.462;2023-07-02T00:03:25;20.50;99.90
22212;DHT22;11275;52.488;13.462;2023-07-02T00:05:51;20.40;99.90
22212;DHT22;11275;52.488;13.462;2023-07-02T00:08:22;20.40;99.90
22212;DHT22;11275;52.488;13.462;2023-07-02T00:10:48;20.40;99.90
22212;DHT22;11275;52.488;13.462;2023-07-02T00:13:14;20.40;99.90
22212;DHT22;11275;52.488;13.462;2023-07-02T00:15:40;20.40;99.90
22212;DHT22;11275;52.488;13.462;2023-07-02T00:18:06;20.40;99.90
22212;DHT22;11275;52.488;13.462;2023-07-02T00:20:32;20.30;99.90
22212;DHT22;11275;52.488;13.462;2023-07-02T00:23:00;20.30;99.90
22212;DHT22;11275;52.488;13.462;2023-07-02T00:25:26;20.20;99.90
22212;DHT22;11275;52.488;13.462;2023-07-02T00:27:52;20.20;99.90
22212;DHT22;11275;52.488;13.462;2023-07-02T00:30:17;20.30;99.90
22212;DHT22;11275;52.488;13.462;2023-07-02T00:32:43;20.30;99.90
22212;DHT22;11275;52.488;13.462;2023-07-02T00:35:09;20.30;99.90
22212;DHT22;11275;52.488;13.462;2023-07-02T00:37:34;20.30;99.90
22212;DHT22;11275;52.488;13.462;2023-07-02T00:40:00;20.20;99.90
22212;DHT22;11275;52.488;13.462;2023-07-02T00:42:25;20.10;99.90
22212;DHT22;11275;52.488;13.462;2023-07-02T00:44:55;20.00;99.90
22212;DHT22;11275;52.488;13.462;2023-07-02T00:47:22;20.00;99.90
22212;DHT22;11275;52.488;13.462;2023-07-02T00:49:48;20.00;99.90
22212;DHT22;11275;52.488;13.462;2023-07-02T00:52:15;20.00;99.90
22212;DHT22;11275;52.488;13.462;2023-07-02T00:54:40;20.10;99.90
22212;DHT22;11275;52.488;13.462;2023-07-02T00:57:06;19.90;99.90
22212;DHT22;11275;52.488;13.462;2023-07-02T00:59:33;19.80;99.90
22212;DHT22;11275;52.488;13.462;2023-07-02T01:02:03;19.90;99.90
22212;DHT22;11275;52.488;13.462;2023-07-02T01:04:30;19.90;99.90
22212;DHT22;11275;52.488;13.462;2023-07-02T01:06:56;19.80;99.90
22212;DHT22;11275;52.488;13.462;2023-07-02T01:09:25;19.90;99.90
22212;DHT22;11275;52.488;13.462;2023-07-02T01:12:00;19.90;99.90
22212;DHT22;11275;52.488;13.462;2023-07-02T01:14:30;19.80;99.90
22212;DHT22;11275;52.488;13.462;2023-07-02T01:16:57;19.80;99.90
22212;DHT22;11275;52.488;13.462;2023-07-02T01:22:18;19.80;99.90
22212;DHT22;11275;52.488;13.462;2023-07-02T01:24:44;19.80;99.90
22212;DHT22;11275;52.488;13.462;2023-07-02T01:27:12;19.80;99.90
22212;DHT22;11275;52.488;13.462;2023-07-02T01:29:38;19.80;99.90
22212;DHT22;11275;52.488;13.462;2023-07-02T01:32:05;19.80;99.90
22212;DHT22;11275;52.488;13.462;2023-07-02T01:34:31;19.70;99.90
22212;DHT22;11275;52.488;13.462;2023-07-02T01:36:56;19.80;99.90
22212;DHT22;11275;52.488;13.462;2023-07-02T01:39:22;19.80;99.90
22212;DHT22;11275;52.488;13.462;2023-07-02T01:41:55;19.80;99.90
22212;DHT22;11275;52.488;13.462;2023-07-02T01:44:22;19.70;99.90
22212;DHT22;11275;52.488;13.462;2023-07-02T01:46:48;19.70;99.90
22212;DHT22;11275;52.488;13.462;2023-07-02T01:49:18;19.70;99.90
22212;DHT22;11275;52.488;13.462;2023-07-02T01:51:51;19.70;99.90
22212;DHT22;11275;52.488;13.462;2023-07-02T01:54:17;19.60;99.90
22212;DHT22;11275;52.488;13.462;2023-07-02T01:56:43;19.70;99.90
22212;DHT22;11275;52.488;13.462;2023-07-02T01:59:08;19.70;99.90
22212;DHT22;11275;52.488;13.462;2023-07-02T02:01:34;19.60;99.90
22212;DHT22;11275;52.488;13.462;2023-07-02T02:04:00;19.60;99.90
22212;DHT22;11275;52.488;13.462;2023-07-02T02:06:25;19.60;99.90
22212;DHT22;11275;52.488;13.462;2023-07-02T02:08:51;19.50;99.90
22212;DHT22;11275;52.488;13.462;2023-07-02T02:11:17;19.40;99.90
22212;DHT22;11275;52.488;13.462;2023-07-02T02:13:42;19.40;99.90
22212;DHT22;11275;52.488;13.462;2023-07-02T02:16:08;19.40;99.90
22212;DHT22;11275;52.488;13.462;2023-07-02T02:18:34;19.40;99.90
22212;DHT22;11275;52.488;13.462;2023-07-02T02:21:00;19.40;99.90
22212;DHT22;11275;52.488;13.462;2023-07-02T02:23:25;19.40;99.90
22212;DHT22;11275;52.488;13.462;2023-07-02T02:25:51;19.50;99.90
22212;DHT22;11275;52.488;13.462;2023-07-02T02:28:17;19.50;99.90
22212;DHT22;11275;52.488;13.462;2023-07-02T02:30:42;19.50;99.90
22212;DHT22;11275;52.488;13.462;2023-07-02T02:33:08;19.50;99.90
22212;DHT22;11275;52.488;13.462;2023-07-02T02:35:33;19.40;99.90
22212;DHT22;11275;52.488;13.462;2023-07-02T02:38:03;19.50;99.90
22212;DHT22;11275;52.488;13.462;2023-07-02T02:40:28;19.40;99.90
22212;DHT22;11275;52.488;13.462;2023-07-02T02:42:57;19.30;99.90
22212;DHT22;11275;52.488;13.462;2023-07-02T02:45:22;19.40;99.90
22212;DHT22;11275;52.488;13.462;2023-07-02T02:47:48;19.40;99.90
22212;DHT22;11275;52.488;13.462;2023-07-02T02:50:14;19.50;99.90
22212;DHT22;11275;52.488;13.462;2023-07-02T02:52:39;19.60;99.90
22212;DHT22;11275;52.488;13.462;2023-07-02T02:55:07;19.60;99.90
22212;DHT22;11275;52.488;13.462;2023-07-02T02:57:33;19.50;99.90
22212;DHT22;11275;52.488;13.462;2023-07-02T02:59:59;19.60;99.90
22212;DHT22;11275;52.488;13.462;2023-07-02T03:02:25;19.50;99.90
22212;DHT22;11275;52.488;13.462;2023-07-02T03:04:51;19.40;99.90
22212;DHT22;11275;52.488;13.462;2023-07-02T03:07:17;19.40;99.90
22212;DHT22;11275;52.488;13.462;2023-07-02T03:09:42;19.40;99.90
22212;DHT22;11275;52.488;13.462;2023-07-02T03:12:08;19.40;99.90
22212;DHT22;11275;52.488;13.462;2023-07-02T03:14:34;19.40;99.90
22212;DHT22;11275;52.488;13.462;2023-07-02T03:17:00;19.40;99.90
22212;DHT22;11275;52.488;13.462;2023-07-02T03:19:26;19.30;99.90
22212;DHT22;11275;52.488;13.462;2023-07-02T03:21:51;19.40;99.90
22212;DHT22;11275;52.488;13.462;2023-07-02T03:24:17;19.40;99.90
22212;DHT22;11275;52.488;13.462;2023-07-02T03:26:44;19.40;99.90
22212;DHT22;11275;52.488;13.462;2023-07-02T03:29:10;19.40;99.90
22212;DHT22;11275;52.488;13.462;2023-07-02T03:31:35;19.30;99.90
22212;DHT22;11275;52.488;13.462;2023-07-02T03:34:08;19.30;99.90
22212;DHT22;11275;52.488;13.462;2023-07-02T03:36:35;19.40;99.90
22212;DHT22;11275;52.488;13.462;2023-07-02T03:39:01;19.40;99.90
22212;DHT22;11275;52.488;13.462;2023-07-02T03:41:27;19.30;99.90
22212;DHT22;11275;52.488;13.462;2023-07-02T03:43:53;19.30;99.90
22212;DHT22;11275;52.488;13.462;2023-07-02T03:46:18;19.20;99.90
22212;DHT22;11275;52.488;13.462;2023-07-02T03:48:44;19.10;99.90
22212;DHT22;11275;52.488;13.462;2023-07-02T03:51:11;19.20;99.90
22212;DHT22;11275;52.488;13.462;2023-07-02T03:53:40;19.20;99.90
22212;DHT22;11275;52.488;13.462;2023-07-02T03:56:05;19.20;99.90
22212;DHT22;11275;52.488;13.462;2023-07-02T03:58:31;19.20;99.90
22212;DHT22;11275;52.488;13.462;2023-07-02T04:00:57;19.20;99.90
22212;DHT22;11275;52.488;13.462;2023-07-02T04:03:22;19.20;99.90
22212;DHT22;11275;52.488;13.462;2023-07-02T04:05:48;19.30;99.90
22212;DHT22;11275;52.488;13.462;2023-07-02T04:08:15;19.20;99.90
22212;DHT22;11275;52.488;13.462;2023-07-02T04:10:41;19.20;99.90
22212;DHT22;11275;52.488;13.462;2023-07-02T04:13:07;19.20;99.90
22212;DHT22;11275;52.488;13.462;2023-07-02T04:15:33;19.30;99.90
22212;DHT22;11275;52.488;13.462;2023-07-02T04:17:59;19.20;99.90
22212;DHT22;11275;52.488;13.462;2023-07-02T04:20:24;19.10;99.90
22212;DHT22;11275;52.488;13.462;2023-07-02T04:22:51;19.10;99.90
22212;DHT22;11275;52.488;13.462;2023-07-02T04:25:17;19.10;99.90
22212;DHT22;11275;52.488;13.462;2023-07-02T04:27:43;19.00;99.90
22212;DHT22;11275;52.488;13.462;2023-07-02T04:30:10;19.00;99.90
22212;DHT22;11275;52.488;13.462;2023-07-02T04:32:37;19.10;99.90
22212;DHT22;11275;52.488;13.462;2023-07-02T04:35:08;19.10;99.90
22212;DHT22;11275;52.488;13.462;2023-07-02T04:37:34;19.00;99.90
22212;DHT22;11275;52.488;13.462;2023-07-02T04:40:00;19.10;99.90
22212;DHT22;11275;52.488;13.462;2023-07-02T04:42:26;19.10;99.90
22212;DHT22;11275;52.488;13.462;2023-07-02T04:44:57;19.20;99.90
22212;DHT22;11275;52.488;13.462;2023-07-02T04:47:29;19.20;99.90
22212;DHT22;11275;52.488;13.462;2023-07-02T04:49:55;19.30;99.90
22212;DHT22;11275;52.488;13.462;2023-07-02T04:52:20;19.20;99.90
22212;DHT22;11275;52.488;13.462;2023-07-02T04:54:46;19.10;99.90
22212;DHT22;11275;52.488;13.462;2023-07-02T04:57:11;19.10;99.90
22212;DHT22;11275;52.488;13.462;2023-07-02T04:59:39;19.10;99.90
22212;DHT22;11275;52.488;13.462;2023-07-02T05:02:04;19.10;99.90
22212;DHT22;11275;52.488;13.462;2023-07-02T05:04:30;19.20;99.90
22212;DHT22;11275;52.488;13.462;2023-07-02T05:06:56;19.20;99.90
22212;DHT22;11275;52.488;13.462;2023-07-02T05:09:21;19.20;99.90
22212;DHT22;11275;52.488;13.462;2023-07-02T05:11:47;19.30;99.90
22212;DHT22;11275;52.488;13.462;2023-07-02T05:14:12;19.20;99.90
22212;DHT22;11275;52.488;13.462;2023-07-02T05:16:38;19.20;99.90
22212;DHT22;11275;52.488;13.462;2023-07-02T05:19:05;19.20;99.90
22212;DHT22;11275;52.488;13.462;2023-07-02T05:21:31;19.30;99.90
22212;DHT22;11275;52.488;13.462;2023-07-02T05:23:56;19.40;99.90
22212;DHT22;11275;52.488;13.462;2023-07-02T05:26:22;19.30;99.90
22212;DHT22;11275;52.488;13.462;2023-07-02T05:28:47;19.40;99.90
22212;DHT22;11275;52.488;13.462;2023-07-02T05:31:13;19.40;99.90
22212;DHT22;11275;52.488;13.462;2023-07-02T05:33:39;19.30;99.90
22212;DHT22;11275;52.488;13.462;2023-07-02T05:36:05;19.30;99.90
22212;DHT22;11275;52.488;13.462;2023-07-02T05:38:30;19.30;99.90
22212;DHT22;11275;52.488;13.462;2023-07-02T05:40:56;19.30;99.90
22212;DHT22;11275;52.488;13.462;2023-07-02T05:43:22;19.30;99.90
22212;DHT22;11275;52.488;13.462;2023-07-02T05:45:50;19.40;99.90
22212;DHT22;11275;52.488;13.462;2023-07-02T05:48:16;19.40;99.90
22212;DHT22;11275;52.488;13.462;2023-07-02T05:50:42;19.50;99.90
22212;DHT22;11275;52.488;13.462;2023-07-02T05:53:07;19.60;99.90
22212;DHT22;11275;52.488;13.462;2023-07-02T05:55:34;19.50;99.90
22212;DHT22;11275;52.488;13.462;2023-07-02T05:58:00;19.60;99.90
22212;DHT22;11275;52.488;13.462;2023-07-02T06:00:28;19.50;99.90
22212;DHT22;11275;52.488;13.462;2023-07-02T06:02:54;19.50;99.90
22212;DHT22;11275;52.488;13.462;2023-07-02T06:05:20;19.30;99.90
22212;DHT22;11275;52.488;13.462;2023-07-02T06:07:45;19.20;99.90
22212;DHT22;11275;52.488;13.462;2023-07-02T06:10:11;19.30;99.90
22212;DHT22;11275;52.488;13.462;2023-07-02T06:12:37;19.30;99.90
22212;DHT22;11275;52.488;13.462;2023-07-02T06:15:03;19.40;99.90
22212;DHT22;11275;52.488;13.462;2023-07-02T06:17:28;19.60;99.90
22212;DHT22;11275;52.488;13.462;2023-07-02T06:19:56;19.60;99.90
22212;DHT22;11275;52.488;13.462;2023-07-02T06:22:22;19.60;99.90
22212;DHT22;11275;52.488;13.462;2023-07-02T06:24:48;19.70;99.90
22212;DHT22;11275;52.488;13.462;2023-07-02T06:27:14;19.80;99.90
22212;DHT22;11275;52.488;13.462;2023-07-02T06:29:40;19.80;99.90
22212;DHT22;11275;52.488;13.462;2023-07-02T06:32:06;19.90;99.90
22212;DHT22;11275;52.488;13.462;2023-07-02T06:34:31;19.80;99.90
22212;DHT22;11275;52.488;13.462;2023-07-02T06:36:57;19.90;99.90
22212;DHT22;11275;52.488;13.462;2023-07-02T06:39:23;20.00;99.90
22212;DHT22;11275;52.488;13.462;2023-07-02T06:41:48;20.00;99.90
22212;DHT22;11275;52.488;13.462;2023-07-02T06:44:14;20.00;99.90
22212;DHT22;11275;52.488;13.462;2023-07-02T06:46:40;20.00;99.90
22212;DHT22;11275;52.488;13.462;2023-07-02T06:49:07;20.00;99.90
22212;DHT22;11275;52.488;13.462;2023-07-02T06:51:33;20.00;99.90
22212;DHT22;11275;52.488;13.462;2023-07-02T06:53:59;20.10;99.90
22212;DHT22;11275;52.488;13.462;2023-07-02T06:56:25;20.20;99.90
22212;DHT22;11275;52.488;13.462;2023-07-02T06:58:50;20.10;99.90
22212;DHT22;11275;52.488;13.462;2023-07-02T07:01:16;20.10;99.90
22212;DHT22;11275;52.488;13.462;2023-07-02T07:03:42;20.20;99.90
22212;DHT22;11275;52.488;13.462;2023-07-02T07:06:07;20.30;99.90
22212;DHT22;11275;52.488;13.462;2023-07-02T07:08:33;20.40;99.90
22212;DHT22;11275;52.488;13.462;2023-07-02T07:11:02;20.40;99.90
22212;DHT22;11275;52.488;13.462;2023-07-02T07:13:27;20.40;99.90
22212;DHT22;11275;52.488;13.462;2023-07-02T07:15:53;20.40;99.90
22212;DHT22;11275;52.488;13.462;2023-07-02T07:18:19;20.50;99.90
22212;DHT22;11275;52.488;13.462;2023-07-02T07:20:44;20.60;99.90
22212;DHT22;11275;52.488;13.462;2023-07-02T07:23:10;20.50;99.90
22212;DHT22;11275;52.488;13.462;2023-07-02T07:25:35;20.60;99.90
22212;DHT22;11275;52.488;13.462;2023-07-02T07:28:01;20.50;99.90
22212;DHT22;11275;52.488;13.462;2023-07-02T07:30:27;20.40;99.90
22212;DHT22;11275;52.488;13.462;2023-07-02T07:32:53;20.40;99.90
22212;DHT22;11275;52.488;13.462;2023-07-02T07:35:21;20.40;99.90
22212;DHT22;11275;52.488;13.462;2023-07-02T07:37:47;20.50;99.90
22212;DHT22;11275;52.488;13.462;2023-07-02T07:40:13;20.50;99.90
22212;DHT22;11275;52.488;13.462;2023-07-02T07:42:39;20.70;99.90
22212;DHT22;11275;52.488;13.462;2023-07-02T07:45:06;20.80;99.90
22212;DHT22;11275;52.488;13.462;2023-07-02T07:47:31;20.80;99.90
22212;DHT22;11275;52.488;13.462;2023-07-02T07:49:57;20.80;99.90
22212;DHT22;11275;52.488;13.462;2023-07-02T07:52:23;20.90;99.90
22212;DHT22;11275;52.488;13.462;2023-07-02T07:54:48;20.90;99.90
22212;DHT22;11275;52.488;13.462;2023-07-02T07:57:14;20.90;99.90
22212;DHT22;11275;52.488;13.462;2023-07-02T07:59:40;20.70;99.90
22212;DHT22;11275;52.488;13.462;2023-07-02T08:02:06;20.70;99.90
22212;DHT22;11275;52.488;13.462;2023-07-02T08:04:32;20.60;99.90
22212;DHT22;11275;52.488;13.462;2023-07-02T08:06:59;20.60;99.90
22212;DHT22;11275;52.488;13.462;2023-07-02T08:09:24;20.50;99.90
22212;DHT22;11275;52.488;13.462;2023-07-02T08:11:50;20.50;99.90
22212;DHT22;11275;52.488;13.462;2023-07-02T08:14:16;20.50;99.90
22212;DHT22;11275;52.488;13.462;2023-07-02T08:16:43;20.50;99.90
22212;DHT22;11275;52.488;13.462;2023-07-02T08:19:09;20.50;99.90
22212;DHT22;11275;52.488;13.462;2023-07-02T08:21:35;20.50;99.90
22212;DHT22;11275;52.488;13.462;2023-07-02T08:24:01;20.40;99.90
22212;DHT22;11275;52.488;13.462;2023-07-02T08:26:26;20.40;99.90
22212;DHT22;11275;52.488;13.462;2023-07-02T08:28:52;20.50;99.90
22212;DHT22;11275;52.488;13.462;2023-07-02T08:31:17;20.50;99.90
22212;DHT22;11275;52.488;13.462;2023-07-02T08:33:43;20.50;99.90
22212;DHT22;11275;52.488;13.462;2023-07-02T08:36:09;20.50;99.90
22212;DHT22;11275;52.488;13.462;2023-07-02T08:38:34;20.50;99.90
22212;DHT22;11275;52.488;13.462;2023-07-02T08:41:00;20.50;99.90
22212;DHT22;11275;52.488;13.462;2023-07-02T08:43:26;20.50;99.90
22212;DHT22;11275;52.488;13.462;2023-07-02T08:45:55;20.50;99.90
22212;DHT22;11275;52.488;13.462;2023-07-02T08:48:21;20.50;99.90
22212;DHT22;11275;52.488;13.462;2023-07-02T08:50:49;20.50;99.90
22212;DHT22;11275;52.488;13.462;2023-07-02T08:53:15;20.50;99.90
22212;DHT22;11275;52.488;13.462;2023-07-02T08:55:41;20.60;99.90
22212;DHT22;11275;52.488;13.462;2023-07-02T08:58:07;20.50;99.90
22212;DHT22;11275;52.488;13.462;2023-07-02T09:00:32;20.50;99.90
22212;DHT22;11275;52.488;13.462;2023-07-02T09:03:14;20.50;99.90
22212;DHT22;11275;52.488;13.462;2023-07-02T09:05:53;20.50;99.90
22212;DHT22;11275;52.488;13.462;2023-07-02T09:08:28;20.50;99.90
22212;DHT22;11275;52.488;13.462;2023-07-02T09:10:54;20.50;99.90
22212;DHT22;11275;52.488;13.462;2023-07-02T09:13:20;20.50;99.90
22212;DHT22;11275;52.488;13.462;2023-07-02T09:15:46;20.60;99.90
22212;DHT22;11275;52.488;13.462;2023-07-02T09:18:19;20.70;99.90
22212;DHT22;11275;52.488;13.462;2023-07-02T09:20:45;20.70;99.90
22212;DHT22;11275;52.488;13.462;2023-07-02T09:23:11;20.80;99.90
22212;DHT22;11275;52.488;13.462;2023-07-02T09:25:38;20.80;99.90
22212;DHT22;11275;52.488;13.462;2023-07-02T09:28:33;20.80;99.90
22212;DHT22;11275;52.488;13.462;2023-07-02T09:30:59;20.80;99.90
22212;DHT22;11275;52.488;13.462;2023-07-02T09:33:25;20.90;99.90
22212;DHT22;11275;52.488;13.462;2023-07-02T09:35:54;20.90;99.90
22212;DHT22;11275;52.488;13.462;2023-07-02T09:38:21;21.00;99.90
22212;DHT22;11275;52.488;13.462;2023-07-02T09:40:52;21.10;99.90
22212;DHT22;11275;52.488;13.462;2023-07-02T09:43:18;21.20;98.80
22212;DHT22;11275;52.488;13.462;2023-07-02T09:45:46;21.10;99.10
22212;DHT22;11275;52.488;13.462;2023-07-02T09:48:16;21.00;99.10
22212;DHT22;11275;52.488;13.462;2023-07-02T09:50:47;21.00;99.30
22212;DHT22;11275;52.488;13.462;2023-07-02T09:53:13;21.00;99.40
22212;DHT22;11275;52.488;13.462;2023-07-02T09:55:41;21.00;99.20
22212;DHT22;11275;52.488;13.462;2023-07-02T09:58:07;20.90;99.50
22212;DHT22;11275;52.488;13.462;2023-07-02T10:00:34;20.90;99.30
22212;DHT22;11275;52.488;13.462;2023-07-02T10:03:00;20.90;99.50
22212;DHT22;11275;52.488;13.462;2023-07-02T10:05:29;20.90;99.90
22212;DHT22;11275;52.488;13.462;2023-07-02T10:07:56;20.80;99.70
22212;DHT22;11275;52.488;13.462;2023-07-02T10:10:29;20.90;99.30
22212;DHT22;11275;52.488;13.462;2023-07-02T10:12:56;20.90;99.20
22212;DHT22;11275;52.488;13.462;2023-07-02T10:15:28;21.00;99.40
22212;DHT22;11275;52.488;13.462;2023-07-02T10:17:59;20.90;99.30
22212;DHT22;11275;52.488;13.462;2023-07-02T10:20:38;21.00;99.50
22212;DHT22;11275;52.488;13.462;2023-07-02T10:23:06;21.10;99.20
22212;DHT22;11275;52.488;13.462;2023-07-02T10:25:38;21.20;99.30
22212;DHT22;11275;52.488;13.462;2023-07-02T10:28:22;21.20;99.80
22212;DHT22;11275;52.488;13.462;2023-07-02T10:30:49;21.30;99.90
22212;DHT22;11275;52.488;13.462;2023-07-02T10:33:17;21.30;99.50
22212;DHT22;11275;52.488;13.462;2023-07-02T10:35:45;21.30;99.20
22212;DHT22;11275;52.488;13.462;2023-07-02T10:38:20;21.30;99.40
22212;DHT22;11275;52.488;13.462;2023-07-02T10:40:46;21.30;99.70
22212;DHT22;11275;52.488;13.462;2023-07-02T10:43:13;21.30;99.90
22212;DHT22;11275;52.488;13.462;2023-07-02T10:45:38;21.30;99.90
22212;DHT22;11275;52.488;13.462;2023-07-02T10:48:13;21.30;99.90
22212;DHT22;11275;52.488;13.462;2023-07-02T10:50:39;21.40;99.90
22212;DHT22;11275;52.488;13.462;2023-07-02T10:53:05;21.60;99.50
22212;DHT22;11275;52.488;13.462;2023-07-02T10:55:30;21.60;99.70
22212;DHT22;11275;52.488;13.462;2023-07-02T11:00:30;21.50;99.40
22212;DHT22;11275;52.488;13.462;2023-07-02T11:02:55;21.60;99.40
22212;DHT22;11275;52.488;13.462;2023-07-02T11:05:21;21.70;99.30
22212;DHT22;11275;52.488;13.462;2023-07-02T11:07:47;21.80;99.00
22212;DHT22;11275;52.488;13.462;2023-07-02T11:10:19;21.90;99.10
22212;DHT22;11275;52.488;13.462;2023-07-02T11:12:45;21.90;98.30
22212;DHT22;11275;52.488;13.462;2023-07-02T11:15:15;21.90;98.60
22212;DHT22;11275;52.488;13.462;2023-07-02T11:17:41;22.00;98.20
22212;DHT22;11275;52.488;13.462;2023-07-02T11:20:08;22.10;97.20
22212;DHT22;11275;52.488;13.462;2023-07-02T11:22:37;22.10;96.80
22212;DHT22;11275;52.488;13.462;2023-07-02T11:25:13;21.90;97.40
22212;DHT22;11275;52.488;13.462;2023-07-02T11:27:40;21.80;97.80
22212;DHT22;11275;52.488;13.462;2023-07-02T11:30:06;21.80;98.10
22212;DHT22;11275;52.488;13.462;2023-07-02T11:32:46;21.80;98.10
22212;DHT22;11275;52.488;13.462;2023-07-02T11:35:14;21.70;97.90
22212;DHT22;11275;52.488;13.462;2023-07-02T11:37:39;21.70;98.20
22212;DHT22;11275;52.488;13.462;2023-07-02T11:40:05;21.70;97.90
22212;DHT22;11275;52.488;13.462;2023-07-02T11:42:31;21.60;98.00
22212;DHT22;11275;52.488;13.462;2023-07-02T11:44:57;21.70;97.40
22212;DHT22;11275;52.488;13.462;2023-07-02T11:47:22;21.70;96.60
22212;DHT22;11275;52.488;13.462;2023-07-02T11:49:48;21.70;95.80
22212;DHT22;11275;52.488;13.462;2023-07-02T11:52:13;21.80;95.90
22212;DHT22;11275;52.488;13.462;2023-07-02T11:54:40;21.90;96.10
22212;DHT22;11275;52.488;13.462;2023-07-02T11:57:06;22.00;94.10
22212;DHT22;11275;52.488;13.462;2023-07-02T11:59:31;22.00;93.90
22212;DHT22;11275;52.488;13.462;2023-07-02T12:01:57;22.10;93.30
22212;DHT22;11275;52.488;13.462;2023-07-02T12:04:23;22.00;92.80
22212;DHT22;11275;52.488;13.462;2023-07-02T12:06:48;22.10;91.50
22212;DHT22;11275;52.488;13.462;2023-07-02T12:09:14;22.10;92.10
22212;DHT22;11275;52.488;13.462;2023-07-02T12:11:40;22.20;91.40
22212;DHT22;11275;52.488;13.462;2023-07-02T12:14:05;22.20;91.10
22212;DHT22;11275;52.488;13.462;2023-07-02T12:16:31;22.20;91.60
22212;DHT22;11275;52.488;13.462;2023-07-02T12:18:57;22.10;91.70
22212;DHT22;11275;52.488;13.462;2023-07-02T12:21:22;22.20;91.30
22212;DHT22;11275;52.488;13.462;2023-07-02T12:23:48;22.30;90.90
22212;DHT22;11275;52.488;13.462;2023-07-02T12:26:13;22.30;90.20
22212;DHT22;11275;52.488;13.462;2023-07-02T12:28:39;22.30;90.00
22212;DHT22;11275;52.488;13.462;2023-07-02T12:31:05;22.40;89.00
22212;DHT22;11275;52.488;13.462;2023-07-02T12:33:30;22.40;88.90
22212;DHT22;11275;52.488;13.462;2023-07-02T12:35:56;22.40;87.40
22212;DHT22;11275;52.488;13.462;2023-07-02T12:38:21;22.40;87.20
22212;DHT22;11275;52.488;13.462;2023-07-02T12:40:47;22.40;87.80
22212;DHT22;11275;52.488;13.462;2023-07-02T12:43:14;22.50;89.60
22212;DHT22;11275;52.488;13.462;2023-07-02T12:45:39;22.50;89.00
22212;DHT22;11275;52.488;13.462;2023-07-02T12:48:05;22.50;88.80
22212;DHT22;11275;52.488;13.462;2023-07-02T12:50:31;22.60;86.20
22212;DHT22;11275;52.488;13.462;2023-07-02T12:52:56;22.70;85.40
22212;DHT22;11275;52.488;13.462;2023-07-02T12:55:22;22.70;86.90
22212;DHT22;11275;52.488;13.462;2023-07-02T12:57:47;22.70;85.90
22212;DHT22;11275;52.488;13.462;2023-07-02T13:00:13;22.70;83.00
22212;DHT22;11275;52.488;13.462;2023-07-02T13:02:39;22.60;81.60
22212;DHT22;11275;52.488;13.462;2023-07-02T13:05:05;22.70;82.00
22212;DHT22;11275;52.488;13.462;2023-07-02T13:07:31;22.70;82.30
22212;DHT22;11275;52.488;13.462;2023-07-02T13:09:56;22.70;83.50
22212;DHT22;11275;52.488;13.462;2023-07-02T13:12:22;22.70;84.00
22212;DHT22;11275;52.488;13.462;2023-07-02T13:14:48;22.60;84.50
22212;DHT22;11275;52.488;13.462;2023-07-02T13:17:13;22.60;85.00
22212;DHT22;11275;52.488;13.462;2023-07-02T13:19:39;22.70;84.40
22212;DHT22;11275;52.488;13.462;2023-07-02T13:22:05;22.60;84.00
22212;DHT22;11275;52.488;13.462;2023-07-02T13:24:34;22.70;83.60
22212;DHT22;11275;52.488;13.462;2023-07-02T13:27:05;22.80;83.40
22212;DHT22;11275;52.488;13.462;2023-07-02T13:29:32;22.70;84.40
22212;DHT22;11275;52.488;13.462;2023-07-02T13:31:58;22.80;84.70
22212;DHT22;11275;52.488;13.462;2023-07-02T13:34:24;22.90;84.60
22212;DHT22;11275;52.488;13.462;2023-07-02T13:36:49;22.90;83.60
22212;DHT22;11275;52.488;13.462;2023-07-02T13:39:15;22.90;81.10
22212;DHT22;11275;52.488;13.462;2023-07-02T13:41:41;22.90;81.30
22212;DHT22;11275;52.488;13.462;2023-07-02T13:44:06;23.00;82.90
22212;DHT22;11275;52.488;13.462;2023-07-02T13:46:32;23.20;82.90
22212;DHT22;11275;52.488;13.462;2023-07-02T13:48:58;23.40;80.40
22212;DHT22;11275;52.488;13.462;2023-07-02T13:51:23;23.40;79.60
22212;DHT22;11275;52.488;13.462;2023-07-02T13:53:49;23.40;80.10
22212;DHT22;11275;52.488;13.462;2023-07-02T13:56:14;23.30;79.10
22212;DHT22;11275;52.488;13.462;2023-07-02T13:59:06;23.30;79.10
22212;DHT22;11275;52.488;13.462;2023-07-02T14:01:33;23.40;77.50
22212;DHT22;11275;52.488;13.462;2023-07-02T14:04:00;23.50;77.50
22212;DHT22;11275;52.488;13.462;2023-07-02T14:06:26;23.60;76.90
22212;DHT22;11275;52.488;13.462;2023-07-02T14:08:52;23.60;77.50
22212;DHT22;11275;52.488;13.462;2023-07-02T14:11:18;23.50;78.50
22212;DHT22;11275;52.488;13.462;2023-07-02T14:13:44;23.40;77.00
22212;DHT22;11275;52.488;13.462;2023-07-02T14:16:09;23.30;76.80
22212;DHT22;11275;52.488;13.462;2023-07-02T14:18:35;23.20;77.30
22212;DHT22;11275;52.488;13.462;2023-07-02T14:21:01;23.20;76.30
22212;DHT22;11275;52.488;13.462;2023-07-02T14:23:28;23.30;76.00
22212;DHT22;11275;52.488;13.462;2023-07-02T14:25:53;23.20;75.50
22212;DHT22;11275;52.488;13.462;2023-07-02T14:28:19;23.30;76.40
22212;DHT22;11275;52.488;13.462;2023-07-02T14:30:45;23.40;76.40
22212;DHT22;11275;52.488;13.462;2023-07-02T14:33:10;23.60;76.00
22212;DHT22;11275;52.488;13.462;2023-07-02T14:35:36;23.70;75.60
22212;DHT22;11275;52.488;13.462;2023-07-02T14:38:02;23.80;75.00
22212;DHT22;11275;52.488;13.462;2023-07-02T14:40:28;23.80;71.70
22212;DHT22;11275;52.488;13.462;2023-07-02T14:42:53;23.90;73.10
22212;DHT22;11275;52.488;13.462;2023-07-02T14:45:19;24.10;72.00
22212;DHT22;11275;52.488;13.462;2023-07-02T14:47:45;24.10;71.70
22212;DHT22;11275;52.488;13.462;2023-07-02T14:50:11;24.00;69.10
22212;DHT22;11275;52.488;13.462;2023-07-02T14:52:37;24.00;69.50
22212;DHT22;11275;52.488;13.462;2023-07-02T14:55:02;24.00;69.20
22212;DHT22;11275;52.488;13.462;2023-07-02T14:57:30;23.90;69.30
22212;DHT22;11275;52.488;13.462;2023-07-02T14:59:55;24.00;68.90
22212;DHT22;11275;52.488;13.462;2023-07-02T15:02:22;24.10;69.80
22212;DHT22;11275;52.488;13.462;2023-07-02T15:04:47;24.10;69.30
22212;DHT22;11275;52.488;13.462;2023-07-02T15:07:13;24.30;69.00
22212;DHT22;11275;52.488;13.462;2023-07-02T15:09:39;24.40;68.90
22212;DHT22;11275;52.488;13.462;2023-07-02T15:12:04;24.40;68.70
22212;DHT22;11275;52.488;13.462;2023-07-02T15:14:30;24.20;68.90
22212;DHT22;11275;52.488;13.462;2023-07-02T15:16:56;24.10;70.00